sensor_id;sensor_type;location;lat;lon;timestamp;pressure;altitude;pressure_sealevel;temperature;humidity
43267;BME280;67779;54.074;18.770;2023-02-13T00:03:59;102503.44;;;4.09;100.00
43267;BME280;67779;54.074;18.770;2023-02-13T00:10:42;102507.53;;;4.01;100.00
43267;BME280;67779;54.074;18.770;2023-02-13T00:17:25;102501.25;;;3.94;100.00
43267;BME280;67779;54.074;18.770;2023-02-13T00:24:08;102515.81;;;3.88;100.00
43267;BME280;67779;54.074;18.770;2023-02-13T00:30:50;102509.56;;;3.83;100.00
43267;BME280;67779;54.074;18.770;2023-02-13T00:37:34;102508.53;;;3.77;100.00
43267;BME280;67779;54.074;18.770;2023-02-13T00:44:16;102502.34;;;3.75;100.00
43267;BME280;67779;54.074;18.770;2023-02-13T00:50:59;102499.63;;;3.72;100.00
43267;BME280;67779;54.074;18.770;2023-02-13T00:57:44;102505.69;;;3.71;100.00
43267;BME280;67779;54.074;18.770;2023-02-13T01:04:27;102504.69;;;3.68;100.00
43267;BME280;67779;54.074;18.770;2023-02-13T01:11:11;102495.88;;;3.64;100.00
43267;BME280;67779;54.074;18.770;2023-02-13T01:17:54;102498.31;;;3.60;100.00
43267;BME280;67779;54.074;18.770;2023-02-13T01:24:40;102496.47;;;3.55;100.00
43267;BME280;67779;54.074;18.770;2023-02-13T01:31:23;102490.19;;;3.50;100.00
43267;BME280;67779;54.074;18.770;2023-02-13T01:38:06;102496.13;;;3.46;100.00
43267;BME280;67779;54.074;18.770;2023-02-13T01:45:00;102489.03;;;3.42;100.00
43267;BME280;67779;54.074;18.770;2023-02-13T01:51:43;102491.47;;;3.38;100.00
43267;BME280;67779;54.074;18.770;2023-02-13T01:58:32;102480.16;;;3.37;100.00
43267;BME280;67779;54.074;18.770;2023-02-13T02:05:18;102479.44;;;3.41;100.00
43267;BME280;67779;54.074;18.770;2023-02-13T02:12:31;102479.69;;;3.49;100.00
43267;BME280;67779;54.074;18.770;2023-02-13T02:55:51;102475.84;;;3.90;100.00
43267;BME280;67779;54.074;18.770;2023-02-13T03:02:35;102479.47;;;3.94;100.00
43267;BME280;67779;54.074;18.770;2023-02-13T03:09:41;102475.22;;;3.97;100.00
43267;BME280;67779;54.074;18.770;2023-02-13T03:16:45;102477.84;;;3.97;100.00
43267;BME280;67779;54.074;18.770;2023-02-13T03:23:57;102473.56;;;3.99;100.00
43267;BME280;67779;54.074;18.770;2023-02-13T03:37:59;102473.69;;;4.04;100.00
43267;BME280;67779;54.074;18.770;2023-02-13T03:45:01;102477.25;;;4.06;100.00
43267;BME280;67779;54.074;18.770;2023-02-13T03:52:52;102467.75;;;4.10;100.00
43267;BME280;67779;54.074;18.770;2023-02-13T03:59:37;102457.38;;;4.11;100.00
43267;BME280;67779;54.074;18.770;2023-02-13T04:06:33;102452.31;;;4.16;100.00
43267;BME280;67779;54.074;18.770;2023-02-13T04:13:37;102464.69;;;4.21;100.00
43267;BME280;67779;54.074;18.770;2023-02-13T04:20:26;102443.00;;;4.24;100.00
43267;BME280;67779;54.074;18.770;2023-02-13T04:27:15;102444.78;;;4.27;100.00
43267;BME280;67779;54.074;18.770;2023-02-13T04:33:58;102455.28;;;4.28;100.00
43267;BME280;67779;54.074;18.770;2023-02-13T04:40:40;102471.13;;;4.33;100.00
43267;BME280;67779;54.074;18.770;2023-02-13T04:47:23;102470.19;;;4.32;100.00
43267;BME280;67779;54.074;18.770;2023-02-13T04:54:06;102466.78;;;4.33;100.00
43267;BME280;67779;54.074;18.770;2023-02-13T05:00:48;102474.63;;;4.35;100.00
43267;BME280;67779;54.074;18.770;2023-02-13T05:07:31;102478.97;;;4.34;100.00
43267;BME280;67779;54.074;18.770;2023-02-13T05:14:13;102479.88;;;4.35;100.00
43267;BME280;67779;54.074;18.770;2023-02-13T05:20:55;102476.38;;;4.34;100.00
43267;BME280;67779;54.074;18.770;2023-02-13T05:27:57;102481.59;;;4.34;100.00
43267;BME280;67779;54.074;18.770;2023-02-13T05:34:39;102472.00;;;4.33;100.00
43267;BME280;67779;54.074;18.770;2023-02-13T05:41:24;102492.03;;;4.33;100.00
43267;BME280;67779;54.074;18.770;2023-02-13T05:48:06;102498.94;;;4.32;100.00
43267;BME280;67779;54.074;18.770;2023-02-13T05:54:49;102500.75;;;4.33;100.00
43267;BME280;67779;54.074;18.770;2023-02-13T06:01:32;102498.13;;;4.33;100.00
43267;BME280;67779;54.074;18.770;2023-02-13T06:08:14;102506.06;;;4.36;100.00
43267;BME280;67779;54.074;18.770;2023-02-13T06:14:57;102500.78;;;4.35;100.00
43267;BME280;67779;54.074;18.770;2023-02-13T06:21:39;102502.59;;;4.37;99.81
43267;BME280;67779;54.074;18.770;2023-02-13T06:28:21;102493.94;;;4.38;98.96
43267;BME280;67779;54.074;18.770;2023-02-13T06:35:05;102512.31;;;4.41;97.87
43267;BME280;67779;54.074;18.770;2023-02-13T06:41:47;102510.66;;;4.43;97.42
43267;BME280;67779;54.074;18.770;2023-02-13T06:48:30;102506.34;;;4.45;96.69
43267;BME280;67779;54.074;18.770;2023-02-13T06:55:15;102509.94;;;4.49;96.43
43267;BME280;67779;54.074;18.770;2023-02-13T07:01:58;102505.69;;;4.53;95.43
43267;BME280;67779;54.074;18.770;2023-02-13T07:08:40;102492.72;;;4.56;94.44
43267;BME280;67779;54.074;18.770;2023-02-13T07:15:23;102490.25;;;4.60;94.35
43267;BME280;67779;54.074;18.770;2023-02-13T07:22:05;102491.16;;;4.62;93.60
43267;BME280;67779;54.074;18.770;2023-02-13T07:28:48;102477.28;;;4.63;93.44
43267;BME280;67779;54.074;18.770;2023-02-13T07:35:49;102471.19;;;4.64;92.93
43267;BME280;67779;54.074;18.770;2023-02-13T07:42:33;102465.22;;;4.68;93.02
43267;BME280;67779;54.074;18.770;2023-02-13T07:49:16;102467.91;;;4.72;92.62
43267;BME280;67779;54.074;18.770;2023-02-13T07:55:58;102462.81;;;4.76;91.50
43267;BME280;67779;54.074;18.770;2023-02-13T08:02:40;102450.03;;;4.87;91.04
43267;BME280;67779;54.074;18.770;2023-02-13T08:09:24;102448.59;;;4.97;90.67
43267;BME280;67779;54.074;18.770;2023-02-13T08:16:25;102459.22;;;5.03;90.13
43267;BME280;67779;54.074;18.770;2023-02-13T08:23:09;102454.06;;;5.06;89.21
43267;BME280;67779;54.074;18.770;2023-02-13T08:29:53;102450.81;;;5.14;88.06
43267;BME280;67779;54.074;18.770;2023-02-13T08:36:36;102455.53;;;5.28;86.59
43267;BME280;67779;54.074;18.770;2023-02-13T08:43:18;102458.50;;;5.42;85.79
43267;BME280;67779;54.074;18.770;2023-02-13T08:50:00;102453.56;;;5.52;84.51
43267;BME280;67779;54.074;18.770;2023-02-13T08:56:43;102452.03;;;5.62;83.29
43267;BME280;67779;54.074;18.770;2023-02-13T09:03:25;102440.06;;;5.72;82.79
43267;BME280;67779;54.074;18.770;2023-02-13T09:10:08;102448.34;;;5.90;82.04
43267;BME280;67779;54.074;18.770;2023-02-13T09:16:51;102449.75;;;6.11;80.29
43267;BME280;67779;54.074;18.770;2023-02-13T09:23:37;102450.19;;;6.29;79.78
43267;BME280;67779;54.074;18.770;2023-02-13T09:30:21;102444.94;;;6.29;77.86
43267;BME280;67779;54.074;18.770;2023-02-13T09:37:06;102461.94;;;6.46;78.07
43267;BME280;67779;54.074;18.770;2023-02-13T09:51:19;102473.69;;;6.65;75.03
43267;BME280;67779;54.074;18.770;2023-02-13T09:58:12;102460.53;;;6.62;75.05
43267;BME280;67779;54.074;18.770;2023-02-13T10:05:18;102456.13;;;6.61;75.44
43267;BME280;67779;54.074;18.770;2023-02-13T10:26:01;102437.66;;;7.01;73.45
43267;BME280;67779;54.074;18.770;2023-02-13T10:40:00;102437.41;;;7.32;72.06
43267;BME280;67779;54.074;18.770;2023-02-13T11:08:38;102412.44;;;7.59;69.87
43267;BME280;67779;54.074;18.770;2023-02-13T11:15:32;102397.63;;;7.63;69.35
43267;BME280;67779;54.074;18.770;2023-02-13T11:22:35;102418.66;;;7.63;68.71
43267;BME280;67779;54.074;18.770;2023-02-13T11:29:31;102402.03;;;7.62;68.83
43267;BME280;67779;54.074;18.770;2023-02-13T11:36:26;102392.38;;;7.63;68.26
43267;BME280;67779;54.074;18.770;2023-02-13T11:43:27;102385.38;;;7.65;68.22
43267;BME280;67779;54.074;18.770;2023-02-13T11:50:33;102374.09;;;7.70;68.70
43267;BME280;67779;54.074;18.770;2023-02-13T11:57:34;102379.34;;;7.70;67.54
43267;BME280;67779;54.074;18.770;2023-02-13T12:04:17;102364.28;;;7.58;67.31
43267;BME280;67779;54.074;18.770;2023-02-13T12:11:35;102369.75;;;7.71;66.83
43267;BME280;67779;54.074;18.770;2023-02-13T12:18:35;102349.94;;;7.93;65.66
43267;BME280;67779;54.074;18.770;2023-02-13T12:26:08;102342.16;;;8.02;64.57
43267;BME280;67779;54.074;18.770;2023-02-13T12:47:29;102369.06;;;8.46;61.08
43267;BME280;67779;54.074;18.770;2023-02-13T13:23:43;102371.06;;;8.69;60.33
43267;BME280;67779;54.074;18.770;2023-02-13T13:30:32;102369.19;;;8.59;59.77
43267;BME280;67779;54.074;18.770;2023-02-13T13:37:39;102344.75;;;8.69;60.26
43267;BME280;67779;54.074;18.770;2023-02-13T13:44:41;102345.00;;;8.93;59.78
43267;BME280;67779;54.074;18.770;2023-02-13T13:51:29;102337.00;;;8.83;58.11
43267;BME280;67779;54.074;18.770;2023-02-13T14:05:31;102326.13;;;8.49;59.22
43267;BME280;67779;54.074;18.770;2023-02-13T14:19:36;102330.97;;;8.18;60.21
43267;BME280;67779;54.074;18.770;2023-02-13T14:26:36;102331.75;;;8.11;60.73
43267;BME280;67779;54.074;18.770;2023-02-13T14:33:29;102334.31;;;8.05;60.59
43267;BME280;67779;54.074;18.770;2023-02-13T14:40:48;102344.75;;;8.00;61.15
43267;BME280;67779;54.074;18.770;2023-02-13T14:47:38;102338.47;;;7.89;61.34
43267;BME280;67779;54.074;18.770;2023-02-13T14:54:33;102331.19;;;7.70;61.54
43267;BME280;67779;54.074;18.770;2023-02-13T15:01:32;102338.63;;;7.42;62.21
43267;BME280;67779;54.074;18.770;2023-02-13T15:08:21;102355.81;;;7.22;63.15
43267;BME280;67779;54.074;18.770;2023-02-13T15:15:27;102357.31;;;7.07;64.23
43267;BME280;67779;54.074;18.770;2023-02-13T15:36:39;102363.78;;;6.78;65.36
43267;BME280;67779;54.074;18.770;2023-02-13T15:43:38;102374.09;;;6.68;65.80
43267;BME280;67779;54.074;18.770;2023-02-13T15:50:34;102380.88;;;6.59;66.41
43267;BME280;67779;54.074;18.770;2023-02-13T15:57:18;102378.97;;;6.50;66.87
43267;BME280;67779;54.074;18.770;2023-02-13T16:04:07;102375.34;;;6.43;66.98
43267;BME280;67779;54.074;18.770;2023-02-13T16:11:18;102386.53;;;6.36;67.73
43267;BME280;67779;54.074;18.770;2023-02-13T16:18:03;102396.91;;;6.32;67.90
43267;BME280;67779;54.074;18.770;2023-02-13T16:24:51;102391.63;;;6.29;68.20
43267;BME280;67779;54.074;18.770;2023-02-13T16:31:34;102382.75;;;6.23;68.57
43267;BME280;67779;54.074;18.770;2023-02-13T16:38:27;102382.63;;;6.16;68.98
43267;BME280;67779;54.074;18.770;2023-02-13T16:45:22;102387.63;;;6.07;69.52
43267;BME280;67779;54.074;18.770;2023-02-13T16:52:22;102405.75;;;5.96;70.01
43267;BME280;67779;54.074;18.770;2023-02-13T17:06:23;102414.72;;;5.71;70.99
43267;BME280;67779;54.074;18.770;2023-02-13T17:19:53;102416.69;;;5.43;72.06
43267;BME280;67779;54.074;18.770;2023-02-13T17:26:36;102432.91;;;5.30;72.47
43267;BME280;67779;54.074;18.770;2023-02-13T17:33:30;102432.63;;;5.19;73.02
43267;BME280;67779;54.074;18.770;2023-02-13T17:40:21;102445.28;;;5.04;73.77
43267;BME280;67779;54.074;18.770;2023-02-13T17:47:04;102449.31;;;4.92;74.45
43267;BME280;67779;54.074;18.770;2023-02-13T17:53:47;102469.13;;;4.84;75.29
43267;BME280;67779;54.074;18.770;2023-02-13T18:00:32;102462.78;;;4.75;75.82
43267;BME280;67779;54.074;18.770;2023-02-13T18:07:19;102467.84;;;4.68;76.03
43267;BME280;67779;54.074;18.770;2023-02-13T18:14:01;102451.06;;;4.62;76.46
43267;BME280;67779;54.074;18.770;2023-02-13T18:20:44;102455.16;;;4.52;76.86
43267;BME280;67779;54.074;18.770;2023-02-13T18:27:27;102457.53;;;4.44;77.57
43267;BME280;67779;54.074;18.770;2023-02-13T18:34:09;102452.06;;;4.37;78.54
43267;BME280;67779;54.074;18.770;2023-02-13T18:40:54;102450.16;;;4.31;79.45
43267;BME280;67779;54.074;18.770;2023-02-13T18:47:38;102447.28;;;4.22;79.80
43267;BME280;67779;54.074;18.770;2023-02-13T18:54:21;102454.81;;;4.13;81.11
43267;BME280;67779;54.074;18.770;2023-02-13T19:01:11;102455.50;;;4.07;81.92
43267;BME280;67779;54.074;18.770;2023-02-13T19:07:54;102469.31;;;4.03;82.23
43267;BME280;67779;54.074;18.770;2023-02-13T19:14:39;102456.06;;;3.97;82.99
43267;BME280;67779;54.074;18.770;2023-02-13T19:21:24;102468.97;;;3.92;83.13
43267;BME280;67779;54.074;18.770;2023-02-13T19:28:07;102470.50;;;3.86;83.51
43267;BME280;67779;54.074;18.770;2023-02-13T19:34:50;102480.78;;;3.81;83.78
43267;BME280;67779;54.074;18.770;2023-02-13T19:41:32;102477.09;;;3.74;84.26
43267;BME280;67779;54.074;18.770;2023-02-13T19:48:16;102470.88;;;3.71;84.92
43267;BME280;67779;54.074;18.770;2023-02-13T19:54:58;102474.25;;;3.68;85.00
43267;BME280;67779;54.074;18.770;2023-02-13T20:01:41;102479.38;;;3.65;85.41
43267;BME280;67779;54.074;18.770;2023-02-13T20:08:23;102481.00;;;3.62;86.09
43267;BME280;67779;54.074;18.770;2023-02-13T20:15:10;102470.47;;;3.58;86.64
43267;BME280;67779;54.074;18.770;2023-02-13T20:21:56;102482.53;;;3.55;87.96
43267;BME280;67779;54.074;18.770;2023-02-13T20:28:40;102481.63;;;3.54;88.03
43267;BME280;67779;54.074;18.770;2023-02-13T20:35:23;102489.44;;;3.54;88.44
43267;BME280;67779;54.074;18.770;2023-02-13T20:42:05;102505.88;;;3.52;88.40
43267;BME280;67779;54.074;18.770;2023-02-13T20:48:48;102507.56;;;3.50;88.52
43267;BME280;67779;54.074;18.770;2023-02-13T20:55:31;102494.47;;;3.48;89.02
43267;BME280;67779;54.074;18.770;2023-02-13T21:02:14;102492.53;;;3.43;90.04
43267;BME280;67779;54.074;18.770;2023-02-13T21:09:41;102498.59;;;3.42;90.80
43267;BME280;67779;54.074;18.770;2023-02-13T21:16:31;102505.44;;;3.38;91.15
43267;BME280;67779;54.074;18.770;2023-02-13T21:23:21;102502.69;;;3.35;91.64
43267;BME280;67779;54.074;18.770;2023-02-13T21:30:04;102503.47;;;3.32;92.11
43267;BME280;67779;54.074;18.770;2023-02-13T21:36:52;102505.16;;;3.30;92.72
43267;BME280;67779;54.074;18.770;2023-02-13T21:43:44;102501.53;;;3.27;93.28
43267;BME280;67779;54.074;18.770;2023-02-13T21:50:32;102498.00;;;3.25;94.23
43267;BME280;67779;54.074;18.770;2023-02-13T21:57:20;102501.44;;;3.24;94.96
43267;BME280;67779;54.074;18.770;2023-02-13T22:04:16;102511.75;;;3.21;94.86
43267;BME280;67779;54.074;18.770;2023-02-13T22:11:00;102522.97;;;3.18;95.54
43267;BME280;67779;54.074;18.770;2023-02-13T22:17:44;102522.03;;;3.16;96.42
43267;BME280;67779;54.074;18.770;2023-02-13T22:24:32;102523.72;;;3.16;96.71
43267;BME280;67779;54.074;18.770;2023-02-13T22:31:20;102526.22;;;3.12;96.58
43267;BME280;67779;54.074;18.770;2023-02-13T22:38:17;102538.34;;;3.10;97.27
43267;BME280;67779;54.074;18.770;2023-02-13T22:45:12;102529.50;;;3.07;97.40
43267;BME280;67779;54.074;18.770;2023-02-13T22:52:00;102531.97;;;3.02;97.72
43267;BME280;67779;54.074;18.770;2023-02-13T22:58:45;102529.19;;;2.98;98.35
43267;BME280;67779;54.074;18.770;2023-02-13T23:05:29;102527.41;;;2.97;99.04
43267;BME280;67779;54.074;18.770;2023-02-13T23:12:13;102542.03;;;2.93;99.21
43267;BME280;67779;54.074;18.770;2023-02-13T23:19:18;102538.44;;;2.89;99.42
43267;BME280;67779;54.074;18.770;2023-02-13T23:26:08;102537.47;;;2.87;99.62
43267;BME280;67779;54.074;18.770;2023-02-13T23:32:51;102544.22;;;2.82;99.99
43267;BME280;67779;54.074;18.770;2023-02-13T23:39:33;102537.19;;;2.80;100.00
43267;BME280;67779;54.074;18.770;2023-02-13T23:46:16;102552.69;;;2.77;100.00
43267;BME280;67779;54.074;18.770;2023-02-13T23:53:03;102543.88;;;2.73;100.00
43267;BME280;67779;54.074;18.770;2023-02-13T23:59:50;102551.66;;;2.72;100.00
